createdAt,value
2022-09-15T00:01:17.403Z,16.42
2022-09-15T00:03:15.511Z,16.44
2022-09-15T00:05:14.881Z,16.35
2022-09-15T00:07:13.039Z,16.32
2022-09-15T00:09:11.171Z,16.39
2022-09-15T00:11:13.356Z,16.27
2022-09-15T00:13:11.489Z,16.27
2022-09-15T00:15:10.401Z,16.37
2022-09-15T00:17:08.700Z,16.30
2022-09-15T00:19:07.674Z,16.16
2022-09-15T00:21:07.943Z,16.25
2022-09-15T00:23:06.223Z,16.19
2022-09-15T00:25:04.956Z,16.12
2022-09-15T00:27:05.117Z,16.12
2022-09-15T00:29:03.919Z,16.22
2022-09-15T00:31:05.662Z,16.17
2022-09-15T00:33:04.089Z,16.06
2022-09-15T00:35:02.527Z,16.15
2022-09-15T00:37:00.770Z,16.00
2022-09-15T00:38:59.483Z,16.09
2022-09-15T00:40:59.547Z,16.03
2022-09-15T00:42:59.293Z,15.98
2022-09-15T00:44:59.827Z,16.07
2022-09-15T00:47:18.393Z,15.95
2022-09-15T00:49:20.286Z,15.92
2022-09-15T00:51:24.250Z,15.92
2022-09-15T00:53:23.887Z,15.92
2022-09-15T00:55:28.214Z,16.02
2022-09-15T00:57:31.269Z,16.04
2022-09-15T00:59:34.644Z,16.05
2022-09-15T01:01:33.748Z,16.03
2022-09-15T01:03:34.520Z,16.08
2022-09-15T01:05:36.927Z,16.02
2022-09-15T01:07:38.783Z,15.95
2022-09-15T01:09:41.026Z,16.06
2022-09-15T01:11:39.907Z,15.97
2022-09-15T01:13:38.165Z,15.91
2022-09-15T01:15:47.426Z,15.86
2022-09-15T01:18:07.588Z,15.83
2022-09-15T01:20:37.604Z,15.98
2022-09-15T01:22:46.296Z,15.96
2022-09-15T01:24:53.731Z,16.02
2022-09-15T01:27:42.111Z,15.95
2022-09-15T01:30:12.488Z,15.85
2022-09-15T01:32:33.946Z,15.77
2022-09-15T01:34:39.536Z,15.82
2022-09-15T01:36:45.540Z,15.88
2022-09-15T01:38:51.785Z,15.95
2022-09-15T01:40:56.937Z,15.83
2022-09-15T01:42:58.579Z,15.91
2022-09-15T01:45:02.136Z,15.89
2022-09-15T01:47:08.108Z,15.95
2022-09-15T01:49:10.805Z,15.77
2022-09-15T01:51:09.785Z,15.72
2022-09-15T01:53:14.264Z,15.76
2022-09-15T01:55:17.685Z,15.86
2022-09-15T01:57:17.317Z,15.90
2022-09-15T01:59:15.429Z,15.73
2022-09-15T02:01:20.295Z,15.71
2022-09-15T02:03:25.469Z,15.58
2022-09-15T02:05:27.062Z,15.53
2022-09-15T02:07:35.694Z,15.65
2022-09-15T02:09:38.135Z,15.66
2022-09-15T02:11:39.805Z,15.73
2022-09-15T02:13:48.874Z,15.73
2022-09-15T02:15:51.801Z,15.74
2022-09-15T02:17:55.408Z,15.69
2022-09-15T02:19:59.001Z,15.73
2022-09-15T02:22:03.041Z,15.68
2022-09-15T02:24:07.501Z,15.52
2022-09-15T02:26:09.990Z,15.65
2022-09-15T02:28:11.567Z,15.51
2022-09-15T02:30:13.518Z,15.47
2022-09-15T02:32:13.773Z,15.59
2022-09-15T02:34:17.073Z,15.60
2022-09-15T02:36:20.838Z,15.45
2022-09-15T02:38:19.311Z,15.50
2022-09-15T02:40:17.657Z,15.42
2022-09-15T02:42:24.593Z,15.39
2022-09-15T02:44:23.661Z,15.37
2022-09-15T02:46:24.730Z,15.48
2022-09-15T02:48:25.373Z,15.34
2022-09-15T02:50:24.411Z,15.45
2022-09-15T02:52:23.991Z,15.44
2022-09-15T02:54:22.287Z,15.48
2022-09-15T02:56:20.904Z,15.46
2022-09-15T02:58:18.978Z,15.50
2022-09-15T03:00:17.612Z,15.53
2022-09-15T03:02:16.515Z,15.52
2022-09-15T03:04:15.095Z,15.51
2022-09-15T03:06:21.654Z,15.42
2022-09-15T03:08:21.162Z,15.37
2022-09-15T03:10:20.086Z,15.28
2022-09-15T03:12:18.272Z,15.12
2022-09-15T03:14:16.430Z,15.04
2022-09-15T03:16:16.673Z,14.98
2022-09-15T03:18:14.984Z,14.95
2022-09-15T03:20:15.384Z,15.03
2022-09-15T03:22:13.530Z,15.04
2022-09-15T03:24:15.439Z,14.94
2022-09-15T03:26:13.744Z,15.09
2022-09-15T03:28:11.864Z,15.15
2022-09-15T03:30:11.672Z,15.03
2022-09-15T03:32:10.931Z,15.01
2022-09-15T03:34:09.222Z,15.07
2022-09-15T03:36:08.113Z,15.04
2022-09-15T03:38:06.713Z,15.20
2022-09-15T03:40:07.598Z,15.20
2022-09-15T03:42:05.981Z,15.23
2022-09-15T03:44:03.629Z,15.22
2022-09-15T03:46:02.297Z,15.10
2022-09-15T03:48:00.380Z,14.94
2022-09-15T03:49:58.617Z,14.86
2022-09-15T03:51:57.196Z,14.86
2022-09-15T03:53:56.804Z,15.02
2022-09-15T03:55:56.508Z,14.97
2022-09-15T03:57:54.695Z,14.97
2022-09-15T03:59:52.846Z,14.94
2022-09-15T04:01:51.712Z,15.01
2022-09-15T04:03:51.511Z,15.06
2022-09-15T04:05:49.876Z,15.06
2022-09-15T04:07:48.144Z,15.09
2022-09-15T04:09:46.378Z,15.00
2022-09-15T04:11:46.125Z,15.02
2022-09-15T04:13:44.743Z,15.13
2022-09-15T04:15:44.329Z,15.19
2022-09-15T04:17:42.704Z,15.27
2022-09-15T04:19:41.634Z,15.34
2022-09-15T04:21:39.911Z,15.16
2022-09-15T04:23:38.832Z,15.15
2022-09-15T04:25:36.895Z,15.21
2022-09-15T04:27:38.157Z,15.35
2022-09-15T04:29:36.477Z,15.50
2022-09-15T04:31:35.259Z,15.64
2022-09-15T04:33:34.097Z,15.54
2022-09-15T04:35:32.251Z,15.55
2022-09-15T04:37:30.418Z,15.72
2022-09-15T04:39:28.534Z,16.01
2022-09-15T04:41:27.582Z,16.29
2022-09-15T04:43:27.405Z,16.57
2022-09-15T04:45:25.632Z,16.67
2022-09-15T04:47:23.676Z,16.81
2022-09-15T04:49:21.805Z,17.18
2022-09-15T04:51:23.175Z,17.30
2022-09-15T04:53:21.732Z,17.18
2022-09-15T04:55:20.056Z,17.33
2022-09-15T04:57:18.290Z,17.37
2022-09-15T04:59:19.414Z,17.49
2022-09-15T05:01:20.044Z,17.77
2022-09-15T05:03:18.223Z,17.76
2022-09-15T05:05:16.570Z,17.65
2022-09-15T05:07:14.846Z,17.91
2022-09-15T05:09:15.158Z,18.18
2022-09-15T05:11:14.243Z,18.00
2022-09-15T05:13:12.494Z,18.04
2022-09-15T05:15:12.748Z,18.12
2022-09-15T05:17:10.870Z,18.36
2022-09-15T05:19:09.240Z,18.69
2022-09-15T05:21:09.361Z,18.98
2022-09-15T05:23:07.499Z,18.99
2022-09-15T05:25:07.027Z,19.37
2022-09-15T05:27:06.595Z,19.49
2022-09-15T05:29:04.868Z,19.25
2022-09-15T05:31:09.962Z,19.35
2022-09-15T05:33:08.133Z,19.51
2022-09-15T05:35:07.144Z,19.63
2022-09-15T05:37:06.075Z,19.79
2022-09-15T05:39:04.748Z,19.63
2022-09-15T05:41:04.126Z,19.37
2022-09-15T05:43:02.338Z,19.27
2022-09-15T05:45:00.497Z,19.74
2022-09-15T05:47:00.145Z,20.21
2022-09-15T05:48:59.891Z,20.56
2022-09-15T05:50:58.467Z,20.76
2022-09-15T05:52:56.591Z,20.69
2022-09-15T05:54:59.010Z,20.85
2022-09-15T05:56:57.482Z,20.68
2022-09-15T05:58:55.793Z,20.64
2022-09-15T06:00:54.760Z,20.88
2022-09-15T06:02:54.316Z,21.10
2022-09-15T06:04:52.692Z,21.24
2022-09-15T06:06:51.268Z,21.28
2022-09-15T06:08:55.403Z,21.21
2022-09-15T06:10:55.884Z,21.56
2022-09-15T06:13:00.685Z,21.18
2022-09-15T06:14:59.940Z,21.35
2022-09-15T06:16:58.103Z,21.58
2022-09-15T06:19:00.288Z,21.17
2022-09-15T06:20:58.614Z,21.10
2022-09-15T06:22:57.257Z,20.88
2022-09-15T06:24:55.317Z,20.90
2022-09-15T06:26:53.572Z,21.54
2022-09-15T06:28:53.680Z,22.00
2022-09-15T06:30:51.800Z,22.10
2022-09-15T06:32:50.362Z,22.12
2022-09-15T06:34:49.929Z,21.78
2022-09-15T06:36:47.960Z,21.76
2022-09-15T06:38:46.787Z,22.07
2022-09-15T06:40:45.268Z,22.57
2022-09-15T06:42:43.427Z,23.06
2022-09-15T06:44:42.729Z,23.15
2022-09-15T06:46:40.982Z,23.05
2022-09-15T06:48:40.679Z,23.23
2022-09-15T06:50:40.410Z,23.27
2022-09-15T06:52:38.524Z,23.07
2022-09-15T06:54:37.381Z,23.19
2022-09-15T06:56:38.061Z,23.19
2022-09-15T06:58:40.619Z,23.17
2022-09-15T07:00:38.804Z,23.13
2022-09-15T07:02:37.022Z,22.93
2022-09-15T07:04:37.031Z,23.25
2022-09-15T07:06:38.024Z,23.37
2022-09-15T07:08:36.621Z,23.01
2022-09-15T07:10:34.915Z,23.02
2022-09-15T07:12:33.825Z,23.03
2022-09-15T07:14:32.071Z,23.24
2022-09-15T07:16:31.082Z,23.34
2022-09-15T07:18:29.619Z,23.20
2022-09-15T07:20:28.110Z,23.38
2022-09-15T07:22:27.699Z,23.51
2022-09-15T07:24:26.017Z,23.72
2022-09-15T07:26:26.463Z,23.78
2022-09-15T07:28:24.594Z,24.27
2022-09-15T07:30:22.814Z,24.23
2022-09-15T07:32:21.083Z,24.12
2022-09-15T07:34:19.237Z,23.97
2022-09-15T07:36:18.618Z,23.99
2022-09-15T07:38:18.069Z,23.79
2022-09-15T07:40:16.464Z,23.92
2022-09-15T07:42:15.499Z,23.73
2022-09-15T07:44:14.198Z,23.71
2022-09-15T07:46:12.429Z,23.80
2022-09-15T07:48:10.609Z,24.18
2022-09-15T07:50:09.407Z,24.60
2022-09-15T07:52:07.557Z,24.66
2022-09-15T07:54:07.356Z,24.75
2022-09-15T07:56:05.860Z,24.95
2022-09-15T07:58:04.366Z,24.89
2022-09-15T08:00:02.679Z,25.26
2022-09-15T08:02:17.545Z,25.03
2022-09-15T08:04:15.940Z,25.24
2022-09-15T08:06:14.928Z,25.37
2022-09-15T08:08:13.126Z,25.46
2022-09-15T08:10:12.977Z,25.44
2022-09-15T08:12:11.330Z,25.10
2022-09-15T08:14:09.576Z,25.06
2022-09-15T08:16:09.648Z,25.34
2022-09-15T08:18:08.054Z,25.91
2022-09-15T08:20:07.512Z,26.27
2022-09-15T08:22:05.884Z,26.70
2022-09-15T08:24:04.359Z,26.76
2022-09-15T08:26:09.639Z,26.98
2022-09-15T08:28:10.098Z,26.99
2022-09-15T08:30:09.368Z,26.94
2022-09-15T08:32:08.497Z,27.13
2022-09-15T08:34:07.053Z,26.97
2022-09-15T08:36:07.068Z,26.98
2022-09-15T08:38:05.599Z,27.37
2022-09-15T08:40:05.212Z,27.82
2022-09-15T08:42:06.278Z,28.16
2022-09-15T08:44:12.366Z,28.35
2022-09-15T08:46:16.978Z,28.68
2022-09-15T08:48:18.336Z,28.81
2022-09-15T08:50:27.399Z,28.85
2022-09-15T08:52:31.560Z,29.15
2022-09-15T08:54:31.651Z,29.05
2022-09-15T08:56:30.783Z,29.13
2022-09-15T08:58:33.178Z,29.55
2022-09-15T09:00:32.299Z,30.39
2022-09-15T09:02:55.512Z,31.67
2022-09-15T09:05:21.986Z,31.93
2022-09-15T09:07:34.376Z,32.04
2022-09-15T09:09:37.893Z,32.61
2022-09-15T09:12:01.560Z,33.00
2022-09-15T09:14:14.408Z,34.81
2022-09-15T09:16:42.378Z,35.15
2022-09-15T09:18:58.909Z,35.43
2022-09-15T09:21:07.146Z,35.38
2022-09-15T09:23:12.100Z,35.93
2022-09-15T09:25:26.563Z,35.66
2022-09-15T09:27:30.044Z,35.90
2022-09-15T09:29:35.783Z,35.86
2022-09-15T09:31:37.167Z,36.28
2022-09-15T09:33:47.535Z,36.03
2022-09-15T09:35:47.754Z,36.36
2022-09-15T09:37:46.310Z,36.62
2022-09-15T09:39:44.587Z,36.68
2022-09-15T09:41:43.860Z,36.93
2022-09-15T09:43:44.000Z,36.95
2022-09-15T09:45:44.112Z,36.54
2022-09-15T09:47:43.041Z,36.89
2022-09-15T09:49:46.771Z,36.85
2022-09-15T09:51:52.401Z,36.91
2022-09-15T09:53:54.758Z,36.54
2022-09-15T09:55:55.281Z,37.21
2022-09-15T09:57:53.641Z,37.78
2022-09-15T09:59:52.815Z,38.04
2022-09-15T10:04:21.277Z,39.15
2022-09-15T10:06:22.260Z,39.52
2022-09-15T10:08:22.032Z,39.61
2022-09-15T10:10:23.279Z,39.17
2022-09-15T10:12:25.260Z,39.44
2022-09-15T10:14:27.606Z,39.42
2022-09-15T10:16:27.642Z,39.56
2022-09-15T10:18:38.994Z,39.75
2022-09-15T10:20:47.899Z,39.71
2022-09-15T10:22:46.177Z,40.38
2022-09-15T10:24:44.930Z,39.31
2022-09-15T10:26:44.748Z,39.72
2022-09-15T10:28:43.878Z,40.12
2022-09-15T10:31:00.180Z,40.47
2022-09-15T10:33:19.482Z,41.34
2022-09-15T10:35:19.531Z,41.02
2022-09-15T10:37:28.430Z,41.13
2022-09-15T10:39:37.206Z,38.97
2022-09-15T10:41:42.556Z,38.27
2022-09-15T10:43:51.998Z,37.05
2022-09-15T10:45:53.954Z,36.00
2022-09-15T10:48:21.199Z,35.38
2022-09-15T10:50:29.747Z,34.60
2022-09-15T10:52:46.791Z,34.20
2022-09-15T10:55:03.219Z,34.18
2022-09-15T10:57:12.284Z,34.34
2022-09-15T10:59:28.088Z,33.77
2022-09-15T11:01:51.934Z,33.17
2022-09-15T11:04:21.399Z,33.09
2022-09-15T11:06:25.080Z,32.87
2022-09-15T11:08:39.750Z,32.52
2022-09-15T11:10:46.724Z,32.56
2022-09-15T11:12:57.650Z,32.32
2022-09-15T11:15:13.211Z,32.23
2022-09-15T11:17:25.070Z,31.84
2022-09-15T11:19:37.397Z,31.49
2022-09-15T11:21:40.644Z,31.50
2022-09-15T11:23:41.430Z,31.74
2022-09-15T11:25:45.183Z,31.98
2022-09-15T11:27:48.013Z,32.27
2022-09-15T11:30:06.227Z,32.53
2022-09-15T11:32:10.830Z,32.76
2022-09-15T11:34:20.169Z,33.17
2022-09-15T11:36:21.949Z,33.39
2022-09-15T11:38:32.034Z,33.45
2022-09-15T11:40:38.038Z,33.33
2022-09-15T11:42:45.056Z,33.32
2022-09-15T11:44:45.400Z,33.00
2022-09-15T11:46:58.645Z,33.03
2022-09-15T11:49:03.225Z,32.82
2022-09-15T11:51:04.152Z,32.57
2022-09-15T11:53:07.429Z,32.32
2022-09-15T11:55:14.889Z,32.38
2022-09-15T11:57:19.747Z,32.63
2022-09-15T11:59:26.120Z,32.73
2022-09-15T12:01:30.177Z,32.70
2022-09-15T12:03:37.579Z,32.66
2022-09-15T12:05:42.014Z,32.63
2022-09-15T12:07:47.202Z,32.15
2022-09-15T12:09:45.689Z,32.11
2022-09-15T12:11:46.590Z,31.98
2022-09-15T12:13:47.068Z,31.76
2022-09-15T12:15:46.597Z,31.70
2022-09-15T12:17:51.839Z,31.71
2022-09-15T12:19:56.935Z,31.94
2022-09-15T12:22:02.054Z,31.70
2022-09-15T12:24:04.945Z,31.83
2022-09-15T12:26:12.706Z,31.80
2022-09-15T12:28:40.251Z,31.95
2022-09-15T12:30:43.728Z,31.95
2022-09-15T12:32:41.947Z,32.12
2022-09-15T12:34:40.183Z,32.08
2022-09-15T12:36:44.393Z,32.06
2022-09-15T12:38:49.255Z,32.01
2022-09-15T12:40:59.105Z,31.99
2022-09-15T12:42:58.123Z,31.94
2022-09-15T12:44:59.793Z,31.98
2022-09-15T12:47:02.328Z,31.99
2022-09-15T12:49:03.679Z,31.92
2022-09-15T12:51:06.231Z,31.79
2022-09-15T12:53:14.153Z,31.81
2022-09-15T12:55:20.614Z,31.86
2022-09-15T12:57:25.343Z,31.91
2022-09-15T12:59:26.571Z,31.92
2022-09-15T13:01:46.850Z,32.00
2022-09-15T13:04:29.625Z,31.82
2022-09-15T13:06:30.426Z,31.78
2022-09-15T13:08:46.441Z,31.78
2022-09-15T13:11:00.918Z,31.71
2022-09-15T13:13:15.874Z,31.72
2022-09-15T13:15:17.076Z,31.69
2022-09-15T13:17:19.586Z,31.68
2022-09-15T13:19:23.735Z,31.71
2022-09-15T13:21:24.849Z,31.61
2022-09-15T13:23:27.442Z,31.64
2022-09-15T13:25:30.239Z,31.64
2022-09-15T13:27:35.686Z,31.72
2022-09-15T13:29:37.815Z,31.74
2022-09-15T13:31:45.423Z,31.80
2022-09-15T13:39:16.698Z,31.61
2022-09-15T13:41:44.732Z,31.58
2022-09-15T13:44:07.126Z,31.65
2022-09-15T13:46:19.256Z,31.70
2022-09-15T13:48:50.273Z,31.69
2022-09-15T13:50:56.782Z,31.68
2022-09-15T13:53:27.334Z,31.73
2022-09-15T13:55:28.973Z,31.62
2022-09-15T13:59:45.576Z,31.72
2022-09-15T14:01:44.636Z,31.74
2022-09-15T14:03:46.349Z,31.80
2022-09-15T14:05:46.064Z,32.14
2022-09-15T14:07:44.826Z,32.20
2022-09-15T14:09:50.233Z,32.29
2022-09-15T14:11:53.442Z,32.02
2022-09-15T14:13:53.225Z,32.07
2022-09-15T14:15:59.723Z,31.93
2022-09-15T14:17:58.334Z,31.72
2022-09-15T14:19:58.401Z,31.69
2022-09-15T14:21:58.692Z,31.63
2022-09-15T14:23:58.589Z,31.61
2022-09-15T14:26:00.392Z,31.56
2022-09-15T14:28:00.239Z,31.47
2022-09-15T14:30:02.309Z,31.51
2022-09-15T14:32:04.049Z,31.53
2022-09-15T14:34:04.165Z,31.37
2022-09-15T14:36:03.180Z,31.43
2022-09-15T14:38:01.830Z,31.43
2022-09-15T14:40:02.137Z,31.48
2022-09-15T14:42:09.473Z,31.42
2022-09-15T14:46:40.098Z,31.04
2022-09-15T14:48:38.445Z,30.90
2022-09-15T14:50:37.264Z,30.77
2022-09-15T14:52:40.276Z,30.67
2022-09-15T14:54:39.403Z,30.60
2022-09-15T14:56:39.483Z,30.42
2022-09-15T14:58:43.182Z,30.36
2022-09-15T15:00:52.085Z,30.25
2022-09-15T15:02:58.729Z,30.09
2022-09-15T15:05:02.255Z,30.00
2022-09-15T15:07:07.833Z,29.93
2022-09-15T15:09:11.358Z,29.88
2022-09-15T15:11:11.023Z,29.85
2022-09-15T15:13:15.347Z,29.73
2022-09-15T15:15:14.820Z,29.68
2022-09-15T15:17:34.157Z,29.62
2022-09-15T15:19:34.761Z,29.55
2022-09-15T15:21:37.706Z,29.47
2022-09-15T15:23:46.819Z,29.39
2022-09-15T15:25:47.004Z,29.32
2022-09-15T15:27:45.101Z,29.24
2022-09-15T15:29:45.517Z,29.19
2022-09-15T15:31:43.710Z,29.16
2022-09-15T15:33:49.662Z,29.15
2022-09-15T15:35:51.313Z,29.12
2022-09-15T15:37:50.262Z,29.08
2022-09-15T15:39:49.091Z,29.05
2022-09-15T15:44:07.881Z,29.03
2022-09-15T15:46:07.644Z,29.03
2022-09-15T15:48:05.954Z,28.97
2022-09-15T15:50:13.653Z,28.94
2022-09-15T15:52:12.699Z,28.92
2022-09-15T15:54:10.931Z,28.85
2022-09-15T15:56:09.473Z,28.80
2022-09-15T15:58:08.115Z,28.72
2022-09-15T16:00:21.506Z,28.61
2022-09-15T16:02:20.835Z,28.49
2022-09-15T16:04:19.097Z,28.39
2022-09-15T16:06:18.733Z,28.26
2022-09-15T16:08:23.918Z,28.15
2022-09-15T16:10:24.757Z,28.10
2022-09-15T16:12:23.018Z,28.00
2022-09-15T16:14:21.269Z,27.90
2022-09-15T16:16:21.351Z,27.81
2022-09-15T16:18:19.491Z,27.69
2022-09-15T16:20:19.857Z,27.56
2022-09-15T16:22:21.937Z,27.51
2022-09-15T16:24:20.286Z,27.45
2022-09-15T16:26:21.861Z,27.37
2022-09-15T16:28:20.177Z,27.29
2022-09-15T16:30:18.508Z,27.15
2022-09-15T16:32:19.981Z,27.09
2022-09-15T16:34:19.640Z,27.03
2022-09-15T16:36:19.931Z,26.92
2022-09-15T16:38:20.383Z,26.84
2022-09-15T16:40:18.818Z,26.75
2022-09-15T16:42:17.049Z,26.75
2022-09-15T16:44:20.233Z,26.67
2022-09-15T16:46:18.487Z,26.69
2022-09-15T16:48:16.730Z,26.67
2022-09-15T16:50:15.348Z,26.62
2022-09-15T16:52:14.145Z,26.51
2022-09-15T16:54:18.598Z,26.54
2022-09-15T16:56:17.135Z,26.44
2022-09-15T16:58:17.477Z,26.45
2022-09-15T17:00:16.583Z,26.44
2022-09-15T17:02:15.391Z,26.36
2022-09-15T17:04:17.111Z,26.30
2022-09-15T17:06:17.737Z,26.25
2022-09-15T17:08:16.014Z,26.26
2022-09-15T17:10:16.012Z,26.21
2022-09-15T17:14:18.564Z,26.17
2022-09-15T17:16:19.855Z,26.16
2022-09-15T17:18:18.591Z,26.16
2022-09-15T17:20:18.908Z,26.17
2022-09-15T17:22:17.167Z,26.20
2022-09-15T17:24:15.270Z,26.19
2022-09-15T17:26:16.532Z,26.15
2022-09-15T17:28:14.719Z,26.06
2022-09-15T17:30:13.891Z,26.04
2022-09-15T17:32:12.064Z,25.99
2022-09-15T17:34:14.365Z,25.87
2022-09-15T17:36:13.207Z,25.77
2022-09-15T17:38:11.506Z,25.72
2022-09-15T17:40:10.581Z,25.61
2022-09-15T17:42:11.268Z,25.58
2022-09-15T17:44:11.672Z,25.49
2022-09-15T17:46:10.073Z,25.41
2022-09-15T17:48:09.372Z,25.27
2022-09-15T17:50:10.912Z,25.19
2022-09-15T17:52:10.111Z,25.07
2022-09-15T17:54:10.935Z,24.99
2022-09-15T17:56:09.073Z,24.87
2022-09-15T17:58:09.502Z,24.72
2022-09-15T18:00:09.829Z,24.61
2022-09-15T18:02:18.755Z,24.61
2022-09-15T18:04:16.970Z,24.55
2022-09-15T18:06:15.128Z,24.48
2022-09-15T18:08:13.703Z,24.39
2022-09-15T18:10:12.856Z,24.22
2022-09-15T18:12:14.837Z,24.19
2022-09-15T18:14:14.513Z,24.15
2022-09-15T18:16:14.997Z,24.11
2022-09-15T18:18:17.100Z,24.06
2022-09-15T18:20:16.812Z,23.95
2022-09-15T18:22:15.689Z,24.02
2022-09-15T18:24:16.118Z,23.96
2022-09-15T18:26:14.373Z,23.96
2022-09-15T18:28:12.538Z,23.97
2022-09-15T18:30:13.377Z,23.97
2022-09-15T18:32:11.544Z,23.90
2022-09-15T18:34:10.389Z,23.99
2022-09-15T18:36:10.802Z,24.02
2022-09-15T18:38:09.443Z,23.92
2022-09-15T18:40:10.723Z,23.83
2022-09-15T18:42:10.163Z,23.76
2022-09-15T18:44:08.289Z,23.75
2022-09-15T18:46:08.093Z,23.65
2022-09-15T18:48:10.494Z,23.58
2022-09-15T18:50:13.203Z,23.47
2022-09-15T18:52:11.633Z,23.42
2022-09-15T18:54:10.721Z,23.38
2022-09-15T18:56:12.957Z,23.27
2022-09-15T18:58:11.963Z,23.20
2022-09-15T19:00:12.481Z,23.13
2022-09-15T19:02:14.601Z,23.12
2022-09-15T19:04:13.020Z,23.09
2022-09-15T19:06:11.188Z,22.94
2022-09-15T19:08:10.999Z,22.95
2022-09-15T19:10:11.018Z,22.91
2022-09-15T19:12:09.526Z,22.90
2022-09-15T19:14:08.765Z,22.84
2022-09-15T19:16:08.758Z,22.77
2022-09-15T19:18:09.045Z,22.73
2022-09-15T19:20:11.776Z,22.69
2022-09-15T19:22:10.624Z,22.59
2022-09-15T19:24:09.149Z,22.61
2022-09-15T19:26:10.163Z,22.54
2022-09-15T19:28:08.676Z,22.52
2022-09-15T19:30:10.031Z,22.49
2022-09-15T19:32:12.946Z,22.67
2022-09-15T19:34:12.699Z,22.74
2022-09-15T19:36:27.374Z,22.76
2022-09-15T19:38:26.993Z,22.73
2022-09-15T19:40:25.325Z,22.70
2022-09-15T19:42:23.764Z,22.62
2022-09-15T19:44:22.474Z,22.55
2022-09-15T19:46:24.278Z,22.51
2022-09-15T19:48:22.802Z,22.43
2022-09-15T19:50:22.727Z,22.39
2022-09-15T19:52:20.978Z,22.38
2022-09-15T19:54:19.473Z,22.26
2022-09-15T19:56:22.763Z,22.27
2022-09-15T19:58:23.853Z,22.28
2022-09-15T20:00:24.909Z,22.23
2022-09-15T20:02:23.399Z,22.27
2022-09-15T20:04:21.622Z,22.27
2022-09-15T20:06:21.558Z,22.25
2022-09-15T20:08:20.401Z,22.28
2022-09-15T20:10:18.628Z,22.26
2022-09-15T20:12:16.911Z,22.26
2022-09-15T20:14:15.890Z,22.32
2022-09-15T20:16:17.669Z,22.32
2022-09-15T20:18:16.604Z,22.34
2022-09-15T20:20:15.048Z,22.31
2022-09-15T20:22:14.900Z,22.36
2022-09-15T20:24:13.176Z,22.36
2022-09-15T20:26:13.841Z,22.32
2022-09-15T20:28:12.056Z,22.34
2022-09-15T20:30:11.176Z,22.34
2022-09-15T20:32:09.813Z,22.36
2022-09-15T20:34:08.063Z,22.34
2022-09-15T20:36:10.494Z,22.30
2022-09-15T20:38:10.166Z,22.31
2022-09-15T20:40:09.608Z,22.30
2022-09-15T20:42:08.159Z,22.30
2022-09-15T20:44:09.168Z,22.26
2022-09-15T20:46:09.176Z,22.19
2022-09-15T20:48:07.478Z,22.22
2022-09-15T20:50:06.717Z,22.14
2022-09-15T20:52:04.830Z,22.14
2022-09-15T20:54:05.599Z,22.14
2022-09-15T20:56:04.525Z,22.10
2022-09-15T20:58:02.575Z,22.12
2022-09-15T21:00:00.844Z,22.25
2022-09-15T21:01:58.950Z,22.39
2022-09-15T21:03:57.400Z,22.31
2022-09-15T21:06:02.526Z,22.24
2022-09-15T21:08:01.534Z,22.20
2022-09-15T21:10:01.002Z,22.23
2022-09-15T21:12:00.228Z,22.19
2022-09-15T21:14:02.126Z,22.19
2022-09-15T21:16:02.363Z,22.14
2022-09-15T21:18:00.708Z,22.16
2022-09-15T21:19:59.272Z,22.08
2022-09-15T21:21:58.533Z,22.07
2022-09-15T21:23:58.755Z,22.03
2022-09-15T21:26:02.632Z,21.99
2022-09-15T21:28:00.792Z,22.06
2022-09-15T21:29:59.286Z,22.00
2022-09-15T21:31:57.888Z,21.95
2022-09-15T21:33:56.754Z,21.97
2022-09-15T21:36:03.323Z,22.03
2022-09-15T21:38:01.487Z,22.08
2022-09-15T21:39:59.781Z,22.11
2022-09-15T21:41:59.412Z,22.07
2022-09-15T21:44:01.139Z,22.03
2022-09-15T21:46:00.072Z,21.96
2022-09-15T21:47:58.392Z,21.95
2022-09-15T21:49:56.746Z,21.95
2022-09-15T21:51:55.312Z,21.98
2022-09-15T21:53:55.087Z,21.86
2022-09-15T21:55:53.599Z,21.71
2022-09-15T21:57:53.138Z,21.65
2022-09-15T21:59:51.233Z,21.73
2022-09-15T22:01:49.698Z,21.74
2022-09-15T22:03:51.571Z,21.75
2022-09-15T22:05:50.762Z,21.68
2022-09-15T22:07:48.914Z,21.67
2022-09-15T22:09:48.007Z,21.60
2022-09-15T22:11:46.484Z,21.52
2022-09-15T22:13:46.096Z,21.49
2022-09-15T22:15:44.856Z,21.49
2022-09-15T22:17:42.998Z,21.49
2022-09-15T22:19:41.266Z,21.38
2022-09-15T22:21:42.155Z,21.34
2022-09-15T22:23:41.139Z,21.41
2022-09-15T22:25:39.335Z,21.45
2022-09-15T22:27:37.559Z,21.46
2022-09-15T22:29:37.264Z,21.36
2022-09-15T22:31:36.316Z,21.32
2022-09-15T22:33:35.337Z,21.31
2022-09-15T22:35:33.616Z,21.28
2022-09-15T22:37:34.024Z,21.26
2022-09-15T22:39:57.435Z,21.28
2022-09-15T22:41:50.553Z,21.23
2022-09-15T22:43:50.689Z,21.21
2022-09-15T22:45:50.659Z,21.25
2022-09-15T22:47:48.896Z,21.23
2022-09-15T22:49:47.142Z,21.12
2022-09-15T22:51:46.121Z,21.17
2022-09-15T22:53:44.269Z,21.05
2022-09-15T22:55:42.702Z,20.98
2022-09-15T22:57:41.721Z,21.02
2022-09-15T22:59:39.749Z,21.02
2022-09-15T23:01:39.499Z,21.01
2022-09-15T23:03:37.661Z,20.93
2022-09-15T23:05:36.240Z,20.90
2022-09-15T23:07:37.834Z,20.85
2022-09-15T23:09:36.131Z,20.81
2022-09-15T23:11:34.706Z,20.81
2022-09-15T23:13:33.368Z,20.71
2022-09-15T23:15:31.456Z,20.66
2022-09-15T23:17:30.957Z,20.60
2022-09-15T23:19:29.378Z,20.56
2022-09-15T23:21:28.310Z,20.53
2022-09-15T23:23:27.359Z,20.45
2022-09-15T23:25:26.091Z,20.47
2022-09-15T23:27:24.643Z,20.50
2022-09-15T23:29:24.944Z,20.43
2022-09-15T23:31:23.583Z,20.38
2022-09-15T23:33:24.397Z,20.31
2022-09-15T23:35:22.526Z,20.32
2022-09-15T23:37:20.695Z,20.25
2022-09-15T23:39:19.114Z,20.20
2022-09-15T23:41:18.226Z,20.20
2022-09-15T23:43:16.654Z,20.26
2022-09-15T23:45:14.964Z,20.27
2022-09-15T23:47:13.130Z,20.29
2022-09-15T23:49:17.976Z,20.16
2022-09-15T23:51:16.906Z,20.19
2022-09-15T23:53:15.030Z,20.14
2022-09-15T23:55:13.191Z,20.12
2022-09-15T23:57:11.883Z,20.14
2022-09-15T23:59:10.115Z,20.10
